Time;durP1;ratioP1;P1;durP2;ratioP2;P2;SDS_P1;SDS_P2;PMS_P1;PMS_P2;Temp;Humidity;BMP_temperature;BMP_pressure;BME280_temperature;BME280_humidity;BME280_pressure;Samples;Min_cycle;Max_cycle;Signal;HPM_P1;HPM_P2
2022/01/13 00:04:59;;;;;;;4.87;2.53;;;17.40;64.90;;;;;;10417551;28;20700;-67
2022/01/13 00:10:22;;;;;;;5.30;3.00;;;17.40;64.90;;;;;;10409816;28;20295;-69
2022/01/13 00:15:48;;;;;;;5.70;3.37;;;17.30;64.80;;;;;;10411758;28;20206;-67
2022/01/13 00:21:15;;;;;;;3.40;2.63;;;17.30;64.80;;;;;;10411518;28;20225;-68
2022/01/13 00:26:37;;;;;;;4.93;3.13;;;17.40;64.90;;;;;;10411037;28;20331;-67
2022/01/13 00:32:01;;;;;;;3.43;2.70;;;17.40;64.80;;;;;;10408892;28;20228;-67
2022/01/13 00:37:23;;;;;;;5.23;2.97;;;17.30;64.80;;;;;;10408172;28;20224;-67
2022/01/13 00:42:45;;;;;;;3.60;2.80;;;17.40;64.90;;;;;;10413876;28;20217;-68
2022/01/13 00:48:09;;;;;;;3.93;3.00;;;17.30;64.80;;;;;;10375925;28;20939;-68
2022/01/13 00:53:31;;;;;;;3.93;3.20;;;17.40;64.80;;;;;;10391066;28;20230;-67
2022/01/13 00:58:53;;;;;;;3.67;3.07;;;17.40;64.90;;;;;;10416490;28;20222;-67
2022/01/13 01:04:17;;;;;;;4.27;2.90;;;17.40;64.90;;;;;;10417472;28;20214;-67
2022/01/13 01:09:48;;;;;;;4.30;2.77;;;17.30;64.70;;;;;;10416359;28;20572;-67
2022/01/13 01:15:11;;;;;;;3.77;2.87;;;17.30;64.70;;;;;;10415862;28;20724;-67
2022/01/13 01:20:47;;;;;;;3.67;2.80;;;17.30;64.80;;;;;;10409765;28;20226;-67
2022/01/13 01:26:23;;;;;;;3.57;2.63;;;17.30;64.70;;;;;;10398556;28;20194;-67
2022/01/13 01:31:48;;;;;;;3.20;2.70;;;17.30;64.80;;;;;;10415296;28;20263;-67
2022/01/13 01:37:16;;;;;;;5.53;2.80;;;17.30;64.80;;;;;;10413585;28;20348;-67
2022/01/13 01:42:39;;;;;;;3.70;2.80;;;17.30;64.70;;;;;;10413229;28;20224;-67
2022/01/13 01:48:03;;;;;;;3.07;2.43;;;17.30;64.80;;;;;;10393835;28;20201;-68
2022/01/13 01:53:27;;;;;;;3.73;2.57;;;17.30;64.80;;;;;;10407446;28;20237;-68
2022/01/13 01:58:49;;;;;;;3.83;2.57;;;17.30;64.80;;;;;;10378672;28;20214;-68
2022/01/13 02:04:12;;;;;;;2.70;2.07;;;17.30;64.80;;;;;;10406342;28;20244;-68
2022/01/13 02:09:41;;;;;;;4.37;2.67;;;17.30;64.80;;;;;;10410734;28;20217;-67
2022/01/13 02:20:55;;;;;;;2.73;2.23;;;17.30;64.80;;;;;;10392360;28;20736;-67
2022/01/13 02:26:17;;;;;;;3.90;2.53;;;17.30;64.80;;;;;;10406771;28;20202;-67
2022/01/13 02:31:39;;;;;;;2.50;2.30;;;17.30;64.80;;;;;;10410481;28;20701;-67
2022/01/13 02:37:04;;;;;;;3.23;2.43;;;17.30;64.80;;;;;;10409748;28;20708;-68
2022/01/13 02:42:28;;;;;;;5.10;2.60;;;17.30;64.80;;;;;;10408845;28;20795;-67
2022/01/13 02:48:25;;;;;;;4.27;2.70;;;17.30;64.80;;;;;;10410278;28;20279;-67
2022/01/13 02:53:44;;;;;;;3.67;2.67;;;17.30;64.80;;;;;;10409763;28;20675;-67
2022/01/13 02:59:07;;;;;;;3.07;2.40;;;17.30;64.70;;;;;;10408383;28;20228;-67
2022/01/13 03:04:29;;;;;;;4.67;2.43;;;17.30;64.70;;;;;;10405142;28;21308;-67
2022/01/13 03:09:53;;;;;;;3.60;2.70;;;17.30;64.80;;;;;;10404126;28;20197;-67
2022/01/13 03:15:15;;;;;;;3.50;2.60;;;17.30;64.70;;;;;;10406545;28;20198;-67
2022/01/13 03:20:37;;;;;;;3.27;2.60;;;17.30;64.80;;;;;;10404807;28;20221;-67
2022/01/13 03:26:01;;;;;;;3.13;2.50;;;17.30;64.70;;;;;;10388043;28;20198;-67
2022/01/13 03:31:24;;;;;;;2.77;2.07;;;17.30;64.70;;;;;;10411137;28;20209;-67
2022/01/13 03:36:47;;;;;;;3.53;2.17;;;17.30;64.80;;;;;;10410934;28;20562;-68
2022/01/13 03:42:10;;;;;;;3.00;2.30;;;17.30;64.80;;;;;;10395009;28;20714;-67
2022/01/13 03:47:33;;;;;;;3.67;2.57;;;17.30;64.70;;;;;;10386317;28;20198;-67
2022/01/13 03:53:43;;;;;;;3.63;2.37;;;17.30;64.70;;;;;;10423032;22;20233;-67
2022/01/13 03:59:57;;;;;;;2.80;2.00;;;17.30;64.50;;;;;;10390986;28;20298;-66
2022/01/13 04:05:20;;;;;;;2.47;2.27;;;17.30;64.50;;;;;;10368955;28;20206;-66
2022/01/13 04:11:13;;;;;;;2.83;2.27;;;17.30;64.80;;;;;;10367799;28;20221;-65
2022/01/13 04:16:37;;;;;;;3.03;2.10;;;17.30;64.50;;;;;;10366685;28;20205;-65
2022/01/13 04:21:59;;;;;;;3.10;2.30;;;17.30;64.80;;;;;;10376485;28;20348;-66
2022/01/13 04:27:24;;;;;;;2.90;2.50;;;17.20;64.70;;;;;;10376133;28;20187;-66
2022/01/13 04:32:48;;;;;;;2.33;1.93;;;17.30;64.80;;;;;;10376503;28;20850;-65
2022/01/13 04:38:10;;;;;;;3.27;2.37;;;17.30;64.80;;;;;;10377117;28;20226;-66
2022/01/13 04:43:33;;;;;;;2.23;1.93;;;17.30;64.80;;;;;;10376831;28;20214;-65
2022/01/13 04:48:56;;;;;;;4.83;2.67;;;17.30;64.70;;;;;;10375415;28;20741;-66
2022/01/13 04:54:19;;;;;;;2.47;2.03;;;17.30;64.70;;;;;;10376092;28;20230;-65
2022/01/13 04:59:41;;;;;;;3.97;2.57;;;17.30;64.70;;;;;;10375497;28;20222;-65
2022/01/13 05:05:05;;;;;;;2.60;2.03;;;17.30;64.70;;;;;;10374352;28;20223;-65
2022/01/13 05:10:27;;;;;;;3.13;2.20;;;17.30;64.70;;;;;;10375019;28;20581;-64
2022/01/13 05:15:50;;;;;;;2.90;2.30;;;17.30;64.70;;;;;;10373925;28;20195;-64
2022/01/13 05:21:21;;;;;;;3.00;2.33;;;17.30;64.70;;;;;;10369847;28;20708;-64
2022/01/13 05:26:43;;;;;;;2.10;1.90;;;17.30;64.70;;;;;;10372711;28;20183;-64
2022/01/13 05:32:06;;;;;;;3.20;2.20;;;17.30;64.60;;;;;;10371558;28;20226;-64
2022/01/13 05:37:30;;;;;;;2.97;2.50;;;17.30;64.70;;;;;;10374302;28;20712;-65
2022/01/13 05:42:52;;;;;;;3.10;2.20;;;17.40;64.70;;;;;;10357731;28;20353;-64
2022/01/13 05:48:15;;;;;;;2.80;2.13;;;17.40;64.70;;;;;;10372906;28;20199;-64
2022/01/13 05:53:38;;;;;;;2.37;1.97;;;17.40;64.70;;;;;;10373473;28;20237;-66
2022/01/13 05:59:00;;;;;;;2.37;2.17;;;17.40;64.80;;;;;;10372432;28;20329;-64
2022/01/13 06:04:22;;;;;;;2.63;2.10;;;17.40;64.80;;;;;;10371988;28;20218;-64
2022/01/13 06:09:46;;;;;;;2.87;2.00;;;17.30;64.70;;;;;;10372709;28;20201;-64
2022/01/13 06:15:10;;;;;;;3.30;2.10;;;17.40;64.80;;;;;;10371383;28;20713;-64
2022/01/13 06:20:33;;;;;;;2.70;2.17;;;17.40;64.80;;;;;;10370867;28;20237;-64
2022/01/13 06:25:57;;;;;;;2.40;2.00;;;17.40;64.80;;;;;;10372006;28;20206;-66
2022/01/13 06:31:19;;;;;;;2.80;2.00;;;17.40;64.90;;;;;;10369001;28;20246;-66
2022/01/13 06:36:41;;;;;;;2.67;1.93;;;17.40;64.90;;;;;;10371216;28;20250;-67
2022/01/13 06:42:06;;;;;;;2.13;1.60;;;17.40;64.80;;;;;;10371216;28;20222;-66
2022/01/13 06:47:28;;;;;;;2.37;1.80;;;17.40;64.70;;;;;;10356271;28;20202;-67
2022/01/13 06:52:50;;;;;;;2.07;1.80;;;17.40;64.70;;;;;;10371050;28;20609;-67
2022/01/13 06:58:14;;;;;;;2.90;1.77;;;17.40;64.70;;;;;;10367761;28;20694;-66
2022/01/13 07:03:44;;;;;;;3.20;2.55;;;17.40;64.60;;;;;;10473414;28;20470;-67
2022/01/13 07:09:09;;;;;;;2.90;2.30;;;18.10;62.20;;;;;;10468957;28;20223;-66
2022/01/13 07:14:32;;;;;;;2.23;2.03;;;17.70;63.30;;;;;;10468028;28;20224;-66
2022/01/13 07:19:56;;;;;;;2.60;1.97;;;17.60;63.90;;;;;;10464473;28;20223;-66
2022/01/13 07:25:18;;;;;;;3.00;2.03;;;17.50;64.30;;;;;;10468070;28;20219;-65
2022/01/13 07:30:41;;;;;;;3.67;2.33;;;17.50;64.50;;;;;;10475074;28;20732;-66
2022/01/13 07:36:05;;;;;;;2.43;1.90;;;17.40;64.60;;;;;;10445616;28;20222;-66
2022/01/13 07:41:27;;;;;;;1.80;1.60;;;17.40;64.70;;;;;;10460998;28;20224;-65
2022/01/13 07:46:49;;;;;;;2.40;2.00;;;17.40;65.00;;;;;;10465332;28;20220;-66
2022/01/13 07:52:13;;;;;;;2.87;2.20;;;17.50;64.70;;;;;;10458942;28;20209;-66
2022/01/13 07:57:35;;;;;;;2.00;1.70;;;17.40;64.60;;;;;;10510968;28;20717;-66
2022/01/13 08:02:57;;;;;;;2.50;1.90;;;17.40;64.60;;;;;;10514226;28;20313;-66
2022/01/13 08:08:21;;;;;;;3.87;2.17;;;17.40;64.60;;;;;;10499099;28;20582;-65
2022/01/13 08:13:44;;;;;;;2.73;2.40;;;17.40;64.60;;;;;;10499246;28;20197;-67
2022/01/13 08:24:47;;;;;;;2.67;1.70;;;17.30;64.70;;;;;;10493928;28;20216;-67
2022/01/13 08:30:11;;;;;;;1.67;1.53;;;17.30;64.70;;;;;;10473263;28;20196;-66
2022/01/13 08:35:34;;;;;;;2.83;2.03;;;17.30;64.80;;;;;;10488637;28;20212;-66
2022/01/13 08:40:59;;;;;;;2.10;1.77;;;17.30;65.40;;;;;;10484950;28;20227;-65
2022/01/13 08:46:23;;;;;;;2.80;2.10;;;17.40;64.90;;;;;;10452738;28;20221;-67
2022/01/13 08:51:45;;;;;;;2.30;1.90;;;17.40;65.00;;;;;;10476041;28;20531;-67
2022/01/13 08:57:09;;;;;;;2.30;1.90;;;17.40;65.00;;;;;;10493088;28;20212;-66
2022/01/13 09:02:33;;;;;;;1.97;1.70;;;17.40;65.00;;;;;;10462015;28;20233;-65
2022/01/13 09:07:55;;;;;;;2.13;1.80;;;17.40;65.00;;;;;;10474804;28;20227;-66
2022/01/13 09:13:19;;;;;;;2.27;1.50;;;17.40;64.90;;;;;;10484305;28;20208;-65
2022/01/13 09:18:59;;;;;;;3.37;1.87;;;17.40;64.90;;;;;;10493435;28;20303;-66
2022/01/13 09:24:23;;;;;;;2.00;1.73;;;17.30;64.80;;;;;;10462435;28;20209;-66
2022/01/13 09:29:47;;;;;;;2.30;1.70;;;17.30;64.80;;;;;;10475869;28;20193;-66
2022/01/13 09:35:10;;;;;;;2.40;1.57;;;17.40;65.10;;;;;;10476250;28;20216;-67
2022/01/13 09:40:32;;;;;;;2.13;1.70;;;17.40;65.10;;;;;;10493210;28;20597;-67
2022/01/13 09:45:58;;;;;;;2.10;1.53;;;17.40;65.10;;;;;;10490449;28;20218;-67
2022/01/13 09:51:23;;;;;;;2.20;1.60;;;17.40;65.00;;;;;;10515348;23;20948;-69
2022/01/13 09:56:45;;;;;;;2.17;1.80;;;17.40;64.90;;;;;;10439298;28;20200;-65
2022/01/13 10:02:09;;;;;;;2.47;1.60;;;17.40;64.90;;;;;;10447248;28;20727;-65
2022/01/13 10:07:32;;;;;;;2.53;1.60;;;17.50;64.90;;;;;;10405647;28;20196;-65
2022/01/13 10:13:02;;;;;;;1.83;1.57;;;17.50;64.90;;;;;;10396794;28;20225;-65
2022/01/13 10:18:37;;;;;;;1.87;1.60;;;17.50;64.80;;;;;;10399738;28;20665;-65
2022/01/13 10:24:09;;;;;;;1.90;1.50;;;17.50;64.60;;;;;;10406903;28;20268;-65
2022/01/13 10:29:48;;;;;;;1.87;1.60;;;17.50;64.80;;;;;;10403679;28;20198;-65
2022/01/13 10:35:14;;;;;;;1.73;1.50;;;17.50;64.70;;;;;;10397790;28;20731;-66
2022/01/13 10:40:40;;;;;;;2.90;1.60;;;17.40;64.70;;;;;;10410643;28;20220;-63
2022/01/13 10:46:03;;;;;;;2.13;1.70;;;17.40;64.70;;;;;;10406907;28;20279;-66
2022/01/13 10:51:27;;;;;;;1.80;1.33;;;17.40;64.70;;;;;;10410337;28;20232;-65
2022/01/13 10:56:49;;;;;;;1.20;1.10;;;17.40;64.80;;;;;;10405360;28;20200;-66
2022/01/13 11:02:11;;;;;;;2.00;1.60;;;17.40;64.70;;;;;;10387016;28;20236;-66
2022/01/13 11:07:36;;;;;;;2.03;1.73;;;17.40;64.80;;;;;;10410035;28;20696;-65
2022/01/13 11:13:00;;;;;;;1.97;1.50;;;17.40;64.60;;;;;;10410030;28;20316;-67
2022/01/13 11:18:24;;;;;;;2.97;1.77;;;17.40;64.60;;;;;;10408447;28;20287;-65
2022/01/13 11:23:51;;;;;;;1.90;1.60;;;17.40;64.60;;;;;;10411006;28;20266;-66
2022/01/13 11:29:14;;;;;;;1.97;1.60;;;17.50;64.60;;;;;;10397927;28;20673;-68
2022/01/13 11:34:36;;;;;;;1.77;1.57;;;17.50;64.60;;;;;;10417852;28;20221;-66
2022/01/13 11:40:00;;;;;;;1.87;1.50;;;17.40;64.60;;;;;;10402817;28;20228;-66
2022/01/13 11:45:23;;;;;;;2.03;1.70;;;17.50;64.70;;;;;;10394713;28;20355;-66
2022/01/13 11:50:50;;;;;;;2.00;1.57;;;17.50;64.80;;;;;;10413408;28;20217;-66
2022/01/13 11:56:14;;;;;;;2.80;1.70;;;17.40;64.80;;;;;;10416000;28;20253;-66
2022/01/13 12:01:38;;;;;;;2.60;1.90;;;17.50;64.90;;;;;;10392156;28;20226;-69
2022/01/13 12:07:00;;;;;;;2.13;1.43;;;17.40;64.90;;;;;;10417739;28;20620;-73
2022/01/13 12:12:34;;;;;;;2.00;1.70;;;17.40;65.10;;;;;;10393122;28;20600;-71
2022/01/13 12:18:00;;;;;;;3.23;1.77;;;17.50;65.10;;;;;;10394336;28;20574;-71
2022/01/13 12:23:43;;;;;;;1.87;1.60;;;17.50;65.00;;;;;;10405993;28;20236;-72
2022/01/13 12:29:14;;;;;;;1.80;1.60;;;17.50;64.70;;;;;;10412421;28;20198;-72
2022/01/13 12:34:48;;;;;;;1.80;1.50;;;17.50;64.70;;;;;;10399463;28;20240;-71
2022/01/13 12:40:14;;;;;;;1.67;1.53;;;17.50;64.50;;;;;;10412422;28;20297;-71
2022/01/13 12:45:38;;;;;;;2.00;1.67;;;17.60;64.10;;;;;;10404432;28;20199;-71
2022/01/13 12:51:01;;;;;;;2.35;1.90;;;17.60;63.90;;;;;;10408423;28;20922;-71
2022/01/13 12:56:27;;;;;;;2.50;1.77;;;18.50;61.20;;;;;;10398667;28;20198;-69
2022/01/13 13:01:50;;;;;;;2.27;1.60;;;18.00;63.40;;;;;;10397325;28;20225;-70
2022/01/13 13:07:13;;;;;;;1.90;1.63;;;17.80;64.00;;;;;;10391017;28;20201;-69
2022/01/13 13:12:36;;;;;;;2.23;1.70;;;17.70;64.40;;;;;;10407684;28;20223;-70
2022/01/13 13:18:00;;;;;;;1.90;1.70;;;17.60;64.50;;;;;;10386352;28;20213;-70
2022/01/13 13:23:25;;;;;;;2.03;1.50;;;17.60;64.60;;;;;;10402665;28;20629;-70
2022/01/13 13:28:48;;;;;;;1.60;1.50;;;17.60;64.80;;;;;;10400492;28;20663;-67
2022/01/13 13:34:14;;;;;;;1.57;1.23;;;17.60;64.90;;;;;;10394636;28;20276;-72
2022/01/13 13:39:36;;;;;;;1.40;1.30;;;17.60;64.90;;;;;;10388086;28;20228;-72
2022/01/13 13:44:58;;;;;;;1.17;1.00;;;17.60;65.10;;;;;;10388001;28;20213;-72
2022/01/13 13:50:23;;;;;;;1.70;1.43;;;17.60;65.10;;;;;;10404317;28;20193;-71
2022/01/13 13:55:57;;;;;;;1.70;1.40;;;17.60;65.00;;;;;;10406977;28;20205;-72
2022/01/13 14:01:19;;;;;;;2.07;1.53;;;17.60;64.90;;;;;;10405298;28;20227;-71
2022/01/13 14:06:44;;;;;;;1.33;1.20;;;17.60;64.90;;;;;;10399979;28;20194;-72
2022/01/13 14:12:08;;;;;;;1.40;1.27;;;17.60;64.90;;;;;;10394069;28;20210;-72
2022/01/13 14:17:31;;;;;;;1.77;1.50;;;17.60;64.90;;;;;;10403141;28;20598;-72
2022/01/13 14:23:00;;;;;;;1.60;1.20;;;17.60;64.80;;;;;;10389132;28;20218;-72
2022/01/13 14:28:27;;;;;;;2.17;1.30;;;17.60;64.70;;;;;;10396240;28;20217;-72
2022/01/13 14:33:50;;;;;;;1.53;1.33;;;17.60;65.30;;;;;;10396596;28;20209;-72
2022/01/13 14:39:13;;;;;;;2.13;1.87;;;17.60;64.70;;;;;;10395059;28;20324;-72
2022/01/13 14:44:37;;;;;;;1.63;1.47;;;17.60;64.70;;;;;;10392878;28;20228;-72
2022/01/13 14:49:59;;;;;;;2.20;1.63;;;17.60;64.60;;;;;;10394316;28;20291;-71
2022/01/13 14:55:22;;;;;;;1.70;1.50;;;17.60;64.60;;;;;;10390564;28;20233;-71
2022/01/13 15:00:44;;;;;;;2.97;1.87;;;17.60;64.60;;;;;;10403014;28;20217;-71
2022/01/13 15:06:07;;;;;;;1.50;1.40;;;17.60;64.50;;;;;;10409936;28;20201;-72
2022/01/13 15:11:31;;;;;;;1.80;1.40;;;17.60;64.60;;;;;;10410696;28;20218;-70
2022/01/13 15:16:55;;;;;;;2.77;1.40;;;17.60;64.50;;;;;;10410150;28;20228;-71
2022/01/13 15:22:18;;;;;;;1.60;1.40;;;17.60;64.50;;;;;;10408436;28;20217;-71
2022/01/13 15:27:41;;;;;;;2.03;1.67;;;17.60;64.60;;;;;;10414674;28;20577;-71
2022/01/13 15:33:04;;;;;;;2.50;1.92;;;17.60;64.50;;;;;;10399924;28;20429;-72
2022/01/13 15:38:27;;;;;;;1.90;1.70;;;18.30;61.80;;;;;;10414799;28;20201;-72
2022/01/13 15:43:50;;;;;;;2.17;1.70;;;17.90;63.50;;;;;;10417700;28;20251;-73
2022/01/13 15:49:13;;;;;;;2.00;1.80;;;17.70;63.90;;;;;;10399639;28;20391;-73
2022/01/13 15:54:35;;;;;;;2.10;1.77;;;17.70;64.10;;;;;;10445706;23;20228;-67
2022/01/13 15:59:59;;;;;;;2.97;2.20;;;17.60;64.10;;;;;;10448910;28;20318;-68
2022/01/13 16:05:21;;;;;;;2.77;2.00;;;17.60;64.10;;;;;;10427951;28;20233;-68
2022/01/13 16:10:45;;;;;;;2.83;2.30;;;17.60;64.00;;;;;;10400875;28;20194;-68
2022/01/13 16:16:09;;;;;;;3.43;2.23;;;17.60;64.00;;;;;;10382411;28;20589;-68
2022/01/13 16:21:31;;;;;;;3.63;2.40;;;17.60;63.90;;;;;;10385352;28;20221;-67
2022/01/13 16:26:53;;;;;;;3.27;1.80;;;17.60;64.00;;;;;;10421882;28;20236;-68
2022/01/13 16:32:17;;;;;;;4.07;1.93;;;17.60;64.00;;;;;;10427689;28;20198;-68
2022/01/13 16:37:41;;;;;;;2.70;2.13;;;17.60;64.00;;;;;;10381726;28;20209;-67
2022/01/13 16:43:05;;;;;;;4.23;2.57;;;17.60;63.90;;;;;;10402286;28;20701;-68
2022/01/13 16:48:30;;;;;;;2.63;2.00;;;17.60;64.00;;;;;;10376702;28;20213;-68
2022/01/13 16:53:52;;;;;;;3.50;2.33;;;17.60;64.00;;;;;;10383588;28;20796;-67
2022/01/13 16:59:14;;;;;;;4.03;2.10;;;17.60;64.00;;;;;;10387535;28;20209;-67
2022/01/13 17:04:38;;;;;;;2.50;2.22;;;17.60;64.10;;;;;;10388013;28;20917;-67
2022/01/13 17:10:00;;;;;;;2.73;2.20;;;17.60;64.00;;;;;;10385679;28;20202;-68
2022/01/13 17:15:22;;;;;;;3.33;2.47;;;17.60;64.00;;;;;;10373697;28;20293;-68
2022/01/13 17:20:46;;;;;;;3.13;2.20;;;17.60;63.90;;;;;;10393855;28;20218;-68
2022/01/13 17:26:08;;;;;;;3.83;2.30;;;17.60;64.00;;;;;;10388902;28;20226;-67
2022/01/13 17:31:33;;;;;;;3.40;2.30;;;17.60;64.00;;;;;;10380672;28;20788;-67
2022/01/13 17:36:57;;;;;;;2.70;2.40;;;17.70;64.10;;;;;;10410772;28;20221;-68
2022/01/13 17:42:19;;;;;;;3.03;2.50;;;17.70;64.10;;;;;;10404751;28;20232;-67
2022/01/13 17:47:41;;;;;;;2.70;2.30;;;17.70;64.10;;;;;;10381867;28;20198;-67
2022/01/13 17:53:06;;;;;;;3.00;2.70;;;17.60;64.10;;;;;;10396451;28;20842;-67
2022/01/13 17:58:28;;;;;;;3.10;2.47;;;17.60;64.20;;;;;;10415456;28;20232;-67
2022/01/13 18:03:51;;;;;;;3.70;2.60;;;17.60;64.20;;;;;;10396340;28;20222;-66
2022/01/13 18:09:15;;;;;;;3.30;2.67;;;17.60;64.30;;;;;;10386412;28;20221;-67
2022/01/13 18:14:37;;;;;;;3.20;2.50;;;17.60;64.20;;;;;;10407869;28;20224;-67
2022/01/13 18:19:59;;;;;;;4.13;3.03;;;17.60;64.20;;;;;;10379490;28;20202;-67
2022/01/13 18:25:23;;;;;;;3.47;2.33;;;17.60;64.20;;;;;;10400815;28;20730;-67
2022/01/13 18:30:46;;;;;;;4.13;2.50;;;17.60;64.20;;;;;;10394198;28;20216;-67
2022/01/13 18:36:08;;;;;;;3.40;2.77;;;17.60;64.20;;;;;;10416838;28;20225;-67
2022/01/13 18:41:31;;;;;;;4.70;3.00;;;17.60;64.20;;;;;;10374902;28;20218;-67
2022/01/13 18:46:56;;;;;;;4.20;2.93;;;17.60;64.10;;;;;;10405805;28;20218;-67
2022/01/13 18:52:18;;;;;;;4.30;3.10;;;17.70;64.70;;;;;;10397839;28;20597;-67
2022/01/13 18:57:41;;;;;;;4.03;2.37;;;17.70;64.20;;;;;;10379852;28;20202;-67
2022/01/13 19:03:04;;;;;;;6.00;2.90;;;17.70;64.10;;;;;;10372430;28;20226;-68
2022/01/13 19:08:28;;;;;;;4.37;2.50;;;17.70;64.10;;;;;;10413657;28;20197;-68
2022/01/13 19:13:51;;;;;;;4.65;3.42;;;17.70;64.30;;;;;;10376095;28;20564;-68
2022/01/13 19:19:16;;;;;;;5.20;2.63;;;18.00;63.40;;;;;;10384515;28;20210;-67
2022/01/13 19:24:39;;;;;;;3.73;2.50;;;17.80;63.90;;;;;;10391360;28;20229;-67
2022/01/13 19:30:03;;;;;;;4.57;2.97;;;17.80;64.20;;;;;;10378299;28;20574;-68
2022/01/13 19:35:26;;;;;;;3.63;2.50;;;17.70;64.30;;;;;;10400282;28;20834;-67
2022/01/13 19:40:48;;;;;;;3.90;2.70;;;17.70;64.40;;;;;;10379088;28;20210;-67
2022/01/13 19:46:12;;;;;;;3.63;2.53;;;17.70;64.30;;;;;;10381638;28;20272;-68
2022/01/13 19:51:34;;;;;;;4.07;2.73;;;17.70;64.20;;;;;;10401339;28;20781;-67
2022/01/13 19:56:56;;;;;;;3.20;2.60;;;17.70;64.20;;;;;;10388415;28;20236;-67
2022/01/13 20:05:55;;;;;;;3.10;2.67;;;17.90;63.30;;;;;;10618363;27;20562;-66
2022/01/13 20:11:18;;;;;;;6.67;2.90;;;17.80;63.90;;;;;;10611240;27;20190;-65
2022/01/13 20:16:43;;;;;;;3.60;2.77;;;17.80;64.00;;;;;;10607094;27;20214;-67
2022/01/13 20:22:07;;;;;;;4.43;3.10;;;17.80;64.20;;;;;;10596801;28;20719;-66
2022/01/13 20:27:29;;;;;;;4.78;3.78;;;17.80;64.40;;;;;;10607363;27;20433;-66
2022/01/13 20:32:52;;;;;;;5.70;3.23;;;18.50;62.00;;;;;;10596372;27;20624;-65
2022/01/13 20:38:17;;;;;;;5.63;3.93;;;18.00;63.50;;;;;;10568698;28;20266;-66
2022/01/13 20:43:39;;;;;;;3.57;3.07;;;17.90;64.10;;;;;;10584448;27;20604;-65
2022/01/13 20:49:01;;;;;;;4.90;3.00;;;17.80;64.40;;;;;;10605552;27;20226;-65
2022/01/13 20:54:26;;;;;;;4.00;3.00;;;17.70;64.50;;;;;;10605111;27;20619;-65
2022/01/13 20:59:48;;;;;;;4.63;2.80;;;17.70;64.60;;;;;;10603373;27;20278;-65
2022/01/13 21:05:11;;;;;;;3.73;2.90;;;17.60;64.60;;;;;;10603491;27;20712;-65
2022/01/13 21:10:35;;;;;;;4.23;3.00;;;17.60;64.60;;;;;;10603335;27;20692;-65
2022/01/13 21:15:58;;;;;;;4.80;3.07;;;17.60;64.60;;;;;;10586336;27;20211;-65
2022/01/13 21:21:20;;;;;;;3.07;2.67;;;17.60;64.60;;;;;;10542565;28;20200;-65
2022/01/13 21:26:43;;;;;;;4.10;2.87;;;17.70;64.70;;;;;;10569160;27;20230;-65
2022/01/13 21:32:06;;;;;;;3.27;2.50;;;17.70;64.70;;;;;;10572826;28;20662;-65
2022/01/13 21:37:28;;;;;;;3.27;2.50;;;17.70;64.70;;;;;;10573055;28;20680;-65
2022/01/13 21:42:55;;;;;;;3.00;2.43;;;17.70;64.80;;;;;;10571150;28;20225;-65
2022/01/13 21:48:17;;;;;;;3.17;2.87;;;17.60;64.70;;;;;;10571692;28;20187;-65
2022/01/13 21:53:39;;;;;;;4.17;2.93;;;17.60;64.70;;;;;;10564281;22;20251;-69
2022/01/13 21:59:03;;;;;;;4.40;2.90;;;17.60;64.80;;;;;;10482238;28;20193;-68
2022/01/13 22:04:25;;;;;;;3.83;2.83;;;17.60;64.80;;;;;;10500757;28;20230;-69
2022/01/13 22:09:50;;;;;;;5.67;2.93;;;17.60;64.80;;;;;;10532171;28;20202;-70
2022/01/13 22:15:14;;;;;;;5.13;3.03;;;17.50;64.80;;;;;;10532184;28;20219;-69
2022/01/13 22:20:38;;;;;;;3.67;2.63;;;17.60;64.80;;;;;;10530005;28;20666;-68
2022/01/13 22:26:00;;;;;;;4.83;3.00;;;17.50;64.80;;;;;;10530097;28;20220;-70
2022/01/13 22:31:23;;;;;;;3.97;3.10;;;17.50;64.70;;;;;;10530626;28;20203;-70
2022/01/13 22:36:46;;;;;;;4.00;2.87;;;17.50;64.70;;;;;;10531147;28;20245;-68
2022/01/13 22:42:08;;;;;;;3.83;3.10;;;17.50;64.70;;;;;;10536035;28;20227;-68
2022/01/13 22:47:32;;;;;;;3.90;3.00;;;17.50;64.70;;;;;;10535226;28;20219;-68
2022/01/13 22:52:54;;;;;;;3.83;2.80;;;17.50;64.70;;;;;;10535667;28;20192;-68
2022/01/13 22:58:17;;;;;;;3.03;2.50;;;17.60;64.70;;;;;;10534398;28;20206;-68
2022/01/13 23:03:43;;;;;;;4.63;3.20;;;17.50;64.60;;;;;;10535276;28;20657;-68
2022/01/13 23:09:05;;;;;;;3.57;2.43;;;17.50;64.60;;;;;;10536154;28;20686;-68
2022/01/13 23:14:42;;;;;;;3.50;2.83;;;17.50;64.60;;;;;;10533869;28;20211;-68
2022/01/13 23:25:46;;;;;;;3.20;2.60;;;17.50;64.50;;;;;;10534495;28;20302;-68
2022/01/13 23:31:08;;;;;;;2.97;2.63;;;17.50;64.50;;;;;;10533946;28;20207;-68
2022/01/13 23:36:32;;;;;;;4.17;2.67;;;17.50;64.50;;;;;;10534255;28;20591;-68
2022/01/13 23:41:58;;;;;;;5.67;3.13;;;17.50;64.60;;;;;;10535329;28;20216;-68
2022/01/13 23:47:21;;;;;;;3.80;2.77;;;17.50;64.60;;;;;;10534034;28;20286;-68
2022/01/13 23:52:45;;;;;;;4.17;2.53;;;17.50;64.60;;;;;;10536834;28;20187;-68
2022/01/13 23:58:07;;;;;;;4.30;2.60;;;17.50;64.60;;;;;;10493655;28;20192;-69
